createdAt,value
2022-12-11T00:00:24.938Z,25.33
2022-12-11T00:01:14.124Z,25.55
2022-12-11T00:02:01.370Z,25.20
2022-12-11T00:02:48.429Z,26.52
2022-12-11T00:03:35.302Z,23.67
2022-12-11T00:04:22.309Z,25.83
2022-12-11T00:05:09.669Z,25.40
2022-12-11T00:05:56.670Z,25.55
2022-12-11T00:06:43.611Z,24.87
2022-12-11T00:07:30.398Z,27.27
2022-12-11T00:08:17.348Z,24.98
2022-12-11T00:09:04.271Z,23.38
2022-12-11T00:09:51.219Z,24.40
2022-12-11T00:10:38.309Z,23.05
2022-12-11T00:11:25.229Z,25.55
2022-12-11T00:12:12.183Z,24.23
2022-12-11T00:12:58.981Z,22.87
2022-12-11T00:13:47.295Z,22.92
2022-12-11T00:14:34.279Z,24.75
2022-12-11T00:15:21.087Z,24.50
2022-12-11T00:16:08.610Z,22.37
2022-12-11T00:16:55.879Z,23.52
2022-12-11T00:17:42.691Z,24.83
2022-12-11T00:18:29.512Z,25.85
2022-12-11T00:19:16.895Z,24.85
2022-12-11T00:20:05.250Z,23.05
2022-12-11T00:20:52.135Z,25.60
2022-12-11T00:21:38.926Z,22.98
2022-12-11T00:22:25.713Z,23.40
2022-12-11T00:23:12.744Z,21.62
2022-12-11T00:23:59.554Z,27.92
2022-12-11T00:24:46.713Z,23.87
2022-12-11T00:25:33.511Z,23.98
2022-12-11T00:26:20.496Z,25.27
2022-12-11T00:27:08.133Z,22.20
2022-12-11T00:27:54.884Z,22.20
2022-12-11T00:28:42.705Z,26.15
2022-12-11T00:29:29.513Z,23.08
2022-12-11T00:30:16.559Z,26.05
2022-12-11T00:31:08.115Z,22.85
2022-12-11T00:31:54.887Z,25.27
2022-12-11T00:32:42.366Z,24.15
2022-12-11T00:33:29.116Z,24.80
2022-12-11T00:34:15.925Z,22.02
2022-12-11T00:35:02.776Z,23.23
2022-12-11T00:35:49.566Z,23.05
2022-12-11T00:36:36.334Z,22.92
2022-12-11T00:37:23.207Z,24.08
2022-12-11T00:38:17.724Z,21.00
2022-12-11T00:39:05.347Z,25.42
2022-12-11T00:39:52.116Z,22.85
2022-12-11T00:40:38.925Z,20.95
2022-12-11T00:41:25.765Z,22.35
2022-12-11T00:42:12.623Z,24.15
2022-12-11T00:42:59.386Z,20.60
2022-12-11T00:43:46.796Z,21.12
2022-12-11T00:44:33.773Z,22.90
2022-12-11T00:45:20.625Z,22.08
2022-12-11T00:46:07.477Z,21.83
2022-12-11T00:46:54.275Z,20.80
2022-12-11T00:47:41.043Z,21.77
2022-12-11T00:48:27.875Z,21.62
2022-12-11T00:49:14.695Z,21.73
2022-12-11T00:50:01.536Z,22.00
2022-12-11T00:50:48.333Z,20.58
2022-12-11T00:51:35.185Z,21.98
2022-12-11T00:52:22.616Z,23.87
2022-12-11T00:53:09.387Z,22.10
2022-12-11T00:53:56.206Z,22.73
2022-12-11T00:54:42.976Z,24.77
2022-12-11T00:55:29.876Z,20.92
2022-12-11T00:56:19.604Z,22.98
2022-12-11T00:57:06.366Z,21.52
2022-12-11T00:57:53.264Z,21.35
2022-12-11T00:58:40.058Z,21.00
2022-12-11T00:59:28.744Z,23.20
2022-12-11T01:00:15.782Z,20.85
2022-12-11T01:01:10.184Z,22.37
2022-12-11T01:01:57.044Z,22.17
2022-12-11T01:02:43.822Z,25.52
2022-12-11T01:03:30.628Z,21.75
2022-12-11T01:04:17.395Z,21.58
2022-12-11T01:05:04.513Z,23.00
2022-12-11T01:05:54.787Z,24.83
2022-12-11T01:06:41.614Z,22.98
2022-12-11T01:07:28.405Z,20.33
2022-12-11T01:08:15.190Z,22.77
2022-12-11T01:09:20.436Z,19.08
2022-12-11T01:10:25.340Z,20.35
2022-12-11T01:11:14.205Z,22.02
2022-12-11T01:12:01.013Z,23.52
2022-12-11T01:12:47.754Z,22.40
2022-12-11T01:13:34.666Z,21.52
2022-12-11T01:14:21.466Z,21.87
2022-12-11T01:15:08.880Z,19.85
2022-12-11T01:15:55.877Z,21.42
2022-12-11T01:16:42.763Z,21.60
2022-12-11T01:17:29.745Z,21.45
2022-12-11T01:18:16.574Z,20.80
2022-12-11T01:19:03.808Z,22.13
2022-12-11T01:19:50.592Z,20.12
2022-12-11T01:20:38.505Z,24.90
2022-12-11T01:21:25.324Z,23.27
2022-12-11T01:22:12.114Z,20.77
2022-12-11T01:23:00.255Z,24.90
2022-12-11T01:23:47.025Z,21.00
2022-12-11T01:24:33.866Z,20.17
2022-12-11T01:25:20.697Z,20.75
2022-12-11T01:26:12.949Z,19.98
2022-12-11T01:26:59.746Z,20.23
2022-12-11T01:27:46.563Z,19.92
2022-12-11T01:28:33.433Z,21.90
2022-12-11T01:29:20.193Z,20.23
2022-12-11T01:30:09.175Z,21.05
2022-12-11T01:30:55.968Z,21.58
2022-12-11T01:31:42.813Z,22.87
2022-12-11T01:32:29.595Z,23.23
2022-12-11T01:33:16.385Z,21.58
2022-12-11T01:34:03.315Z,22.35
2022-12-11T01:34:50.164Z,19.50
2022-12-11T01:35:36.975Z,19.40
2022-12-11T01:36:24.043Z,20.50
2022-12-11T01:37:10.854Z,22.17
2022-12-11T01:37:57.625Z,22.20
2022-12-11T01:38:45.658Z,19.90
2022-12-11T01:39:32.515Z,22.05
2022-12-11T01:40:20.380Z,18.92
2022-12-11T01:41:07.575Z,20.00
2022-12-11T01:42:01.526Z,21.25
2022-12-11T01:42:48.409Z,19.67
2022-12-11T01:43:35.867Z,20.33
2022-12-11T01:44:22.615Z,21.87
2022-12-11T01:45:21.554Z,19.50
2022-12-11T01:46:08.396Z,20.30
2022-12-11T01:46:55.246Z,22.80
2022-12-11T01:47:42.033Z,22.17
2022-12-11T01:48:30.457Z,20.75
2022-12-11T01:49:19.405Z,19.17
2022-12-11T01:50:06.474Z,20.23
2022-12-11T01:51:02.026Z,20.05
2022-12-11T01:52:07.105Z,22.50
2022-12-11T01:52:53.955Z,19.90
2022-12-11T01:53:43.515Z,20.80
2022-12-11T01:54:30.609Z,21.48
2022-12-11T01:55:18.445Z,19.85
2022-12-11T01:56:06.855Z,22.02
2022-12-11T01:56:56.196Z,19.77
2022-12-11T01:57:44.745Z,19.90
2022-12-11T01:58:34.465Z,19.50
2022-12-11T01:59:25.426Z,19.23
2022-12-11T02:00:13.048Z,19.92
2022-12-11T02:01:00.577Z,21.05
2022-12-11T02:01:53.864Z,20.12
2022-12-11T02:02:40.765Z,20.23
2022-12-11T02:03:27.752Z,20.40
2022-12-11T02:04:15.575Z,20.92
2022-12-11T02:05:03.855Z,20.65
2022-12-11T02:05:50.926Z,20.60
2022-12-11T02:06:42.167Z,19.73
2022-12-11T02:07:31.265Z,21.80
2022-12-11T02:08:18.345Z,19.50
2022-12-11T02:09:08.245Z,21.33
2022-12-11T02:09:55.128Z,19.87
2022-12-11T02:11:22.465Z,20.48
2022-12-11T02:12:38.385Z,17.12
2022-12-11T02:13:50.086Z,20.40
2022-12-11T02:15:01.214Z,21.40
2022-12-11T02:16:01.227Z,16.80
2022-12-11T02:17:00.295Z,19.62
2022-12-11T02:18:01.966Z,21.80
2022-12-11T02:18:56.214Z,18.77
2022-12-11T02:19:51.875Z,19.08
2022-12-11T02:20:43.643Z,21.42
2022-12-11T02:21:41.857Z,19.08
2022-12-11T02:22:46.596Z,18.30
2022-12-11T02:24:12.184Z,20.67
2022-12-11T02:25:10.188Z,21.52
2022-12-11T02:26:04.205Z,18.23
2022-12-11T02:27:03.323Z,20.10
2022-12-11T02:28:04.894Z,20.50
2022-12-11T02:28:56.807Z,19.52
2022-12-11T02:29:54.660Z,21.40
2022-12-11T02:30:42.685Z,21.48
2022-12-11T02:32:07.114Z,18.95
2022-12-11T02:32:58.747Z,19.73
2022-12-11T02:33:56.896Z,18.15
2022-12-11T02:34:48.386Z,20.75
2022-12-11T02:35:38.813Z,19.40
2022-12-11T02:36:28.776Z,23.87
2022-12-11T02:37:20.665Z,18.30
2022-12-11T02:38:15.854Z,18.48
2022-12-11T02:39:03.827Z,18.20
2022-12-11T02:39:52.576Z,19.50
2022-12-11T02:40:40.557Z,20.12
2022-12-11T02:41:27.917Z,20.40
2022-12-11T02:42:16.525Z,19.73
2022-12-11T02:43:06.246Z,21.17
2022-12-11T02:43:54.046Z,22.45
2022-12-11T02:44:41.176Z,21.00
2022-12-11T02:45:28.448Z,22.80
2022-12-11T02:46:15.933Z,19.98
2022-12-11T02:47:04.567Z,20.23
2022-12-11T02:47:52.116Z,19.12
2022-12-11T02:48:40.934Z,24.00
2022-12-11T02:49:28.494Z,18.95
2022-12-11T02:50:18.754Z,20.23
2022-12-11T02:51:07.017Z,20.55
2022-12-11T02:51:55.545Z,21.42
2022-12-11T02:52:43.265Z,20.77
2022-12-11T02:53:31.674Z,21.65
2022-12-11T02:54:21.489Z,20.30
2022-12-11T02:55:09.814Z,20.77
2022-12-11T02:56:04.795Z,20.52
2022-12-11T02:56:55.884Z,22.73
2022-12-11T02:57:43.406Z,21.40
2022-12-11T02:58:32.985Z,21.42
2022-12-11T02:59:24.484Z,20.30
2022-12-11T03:00:12.775Z,19.23
2022-12-11T03:00:59.649Z,23.15
2022-12-11T03:01:47.487Z,23.52
2022-12-11T03:02:34.466Z,19.50
2022-12-11T03:03:22.154Z,22.02
2022-12-11T03:04:09.228Z,22.02
2022-12-11T03:04:57.529Z,21.23
2022-12-11T03:05:46.306Z,20.40
2022-12-11T03:06:37.108Z,22.50
2022-12-11T03:07:28.916Z,24.65
2022-12-11T03:08:18.038Z,22.17
2022-12-11T03:09:05.886Z,22.87
2022-12-11T03:09:52.949Z,21.40
2022-12-11T03:10:39.737Z,23.67
2022-12-11T03:11:26.551Z,23.42
2022-12-11T03:12:20.407Z,21.98
2022-12-11T03:13:07.176Z,23.00
2022-12-11T03:13:54.378Z,23.08
2022-12-11T03:14:42.331Z,24.67
2022-12-11T03:15:36.485Z,22.20
2022-12-11T03:16:36.363Z,23.85
2022-12-11T03:17:33.494Z,22.13
2022-12-11T03:18:42.044Z,22.20
2022-12-11T03:19:36.032Z,19.83
2022-12-11T03:20:40.864Z,22.70
2022-12-11T03:21:38.736Z,22.17
2022-12-11T03:22:46.496Z,21.40
2022-12-11T03:23:54.871Z,23.38
2022-12-11T03:24:46.196Z,24.90
2022-12-11T03:25:44.287Z,22.50
2022-12-11T03:26:33.164Z,23.50
2022-12-11T03:27:28.017Z,21.48
2022-12-11T03:28:21.705Z,20.58
2022-12-11T03:29:16.376Z,23.00
2022-12-11T03:30:08.249Z,21.83
2022-12-11T03:30:56.196Z,23.45
2022-12-11T03:31:51.196Z,22.98
2022-12-11T03:32:50.995Z,20.98
2022-12-11T03:33:39.827Z,19.60
2022-12-11T03:34:45.084Z,26.08
2022-12-11T03:35:41.861Z,22.98
2022-12-11T03:36:32.602Z,20.37
2022-12-11T03:37:20.054Z,22.00
2022-12-11T03:38:10.034Z,23.25
2022-12-11T03:39:12.958Z,17.95
2022-12-11T03:40:04.164Z,22.15
2022-12-11T03:40:54.584Z,21.27
2022-12-11T03:41:43.035Z,23.38
2022-12-11T03:42:30.046Z,21.45
2022-12-11T03:43:17.294Z,23.90
2022-12-11T03:44:04.283Z,22.23
2022-12-11T03:44:52.434Z,23.05
2022-12-11T03:45:40.476Z,25.67
2022-12-11T03:46:35.673Z,23.17
2022-12-11T03:47:24.513Z,20.00
2022-12-11T03:48:12.152Z,23.17
2022-12-11T03:49:02.424Z,23.02
2022-12-11T03:49:50.126Z,24.40
2022-12-11T03:50:37.385Z,21.73
2022-12-11T03:51:24.444Z,22.08
2022-12-11T03:52:12.896Z,22.83
2022-12-11T03:53:01.042Z,23.30
2022-12-11T03:53:48.135Z,25.52
2022-12-11T03:54:35.297Z,24.87
2022-12-11T03:55:23.005Z,23.40
2022-12-11T03:56:11.164Z,24.12
2022-12-11T03:56:59.802Z,24.05
2022-12-11T03:57:46.585Z,21.40
2022-12-11T03:58:33.561Z,23.95
2022-12-11T03:59:20.326Z,24.45
2022-12-11T04:00:10.135Z,23.95
2022-12-11T04:00:56.915Z,23.23
2022-12-11T04:01:43.803Z,22.15
2022-12-11T04:02:31.122Z,26.05
2022-12-11T04:03:18.192Z,24.73
2022-12-11T04:04:05.113Z,24.58
2022-12-11T04:04:51.905Z,24.83
2022-12-11T04:05:38.986Z,25.85
2022-12-11T04:06:25.754Z,25.33
2022-12-11T04:07:12.536Z,25.37
2022-12-11T04:07:59.359Z,25.33
2022-12-11T04:08:46.201Z,25.37
2022-12-11T04:09:33.379Z,24.98
2022-12-11T04:10:20.170Z,24.70
2022-12-11T04:11:25.925Z,26.50
2022-12-11T04:12:12.705Z,23.58
2022-12-11T04:12:59.475Z,25.55
2022-12-11T04:13:46.345Z,26.67
2022-12-11T04:14:51.770Z,21.77
2022-12-11T04:15:39.782Z,24.77
2022-12-11T04:16:26.624Z,25.37
2022-12-11T04:17:33.397Z,24.58
2022-12-11T04:18:38.633Z,24.77
2022-12-11T04:19:44.777Z,25.65
2022-12-11T04:20:50.315Z,26.87
2022-12-11T04:21:55.915Z,25.23
2022-12-11T04:23:01.534Z,23.55
2022-12-11T04:24:07.080Z,25.73
2022-12-11T04:24:53.915Z,24.40
2022-12-11T04:25:40.716Z,25.17
2022-12-11T04:26:27.576Z,23.92
2022-12-11T04:27:14.326Z,25.77
2022-12-11T04:28:01.094Z,25.58
2022-12-11T04:28:48.394Z,27.60
2022-12-11T04:29:35.265Z,25.83
2022-12-11T04:30:28.006Z,27.17
2022-12-11T04:31:20.549Z,26.70
2022-12-11T04:32:07.375Z,24.23
2022-12-11T04:32:55.166Z,27.20
2022-12-11T04:33:42.184Z,22.40
2022-12-11T04:34:29.119Z,26.73
2022-12-11T04:35:15.974Z,26.98
2022-12-11T04:36:02.806Z,25.98
2022-12-11T04:36:49.605Z,26.05
2022-12-11T04:37:36.799Z,26.67
2022-12-11T04:38:23.585Z,30.23
2022-12-11T04:39:10.387Z,26.50
2022-12-11T04:39:57.175Z,24.10
2022-12-11T04:40:43.995Z,26.67
2022-12-11T04:41:30.913Z,26.87
2022-12-11T04:42:17.654Z,27.98
2022-12-11T04:43:04.415Z,24.85
2022-12-11T04:43:51.285Z,27.30
2022-12-11T04:44:38.075Z,23.58
2022-12-11T04:45:24.864Z,23.98
2022-12-11T04:46:15.046Z,24.25
2022-12-11T04:47:01.884Z,28.67
2022-12-11T04:47:48.756Z,24.05
2022-12-11T04:48:35.816Z,27.87
2022-12-11T04:49:22.596Z,26.40
2022-12-11T04:50:11.205Z,27.02
2022-12-11T04:50:58.644Z,28.98
2022-12-11T04:51:45.414Z,26.25
2022-12-11T04:52:32.234Z,28.80
2022-12-11T04:53:18.995Z,26.05
2022-12-11T04:54:05.795Z,24.85
2022-12-11T04:54:52.626Z,27.50
2022-12-11T04:55:39.864Z,31.55
2022-12-11T04:56:26.625Z,32.92
2022-12-11T04:57:13.496Z,32.33
2022-12-11T04:58:00.346Z,30.95
2022-12-11T04:58:48.468Z,36.53
2022-12-11T04:59:35.472Z,34.13
2022-12-11T05:00:22.896Z,29.40
2022-12-11T05:01:11.371Z,34.50
2022-12-11T05:01:58.219Z,31.25
2022-12-11T05:02:45.152Z,35.47
2022-12-11T05:03:32.006Z,29.25
2022-12-11T05:04:18.784Z,32.28
2022-12-11T05:05:06.752Z,30.50
2022-12-11T05:05:54.285Z,34.47
2022-12-11T05:06:41.075Z,33.88
2022-12-11T05:07:27.897Z,33.70
2022-12-11T05:08:14.712Z,33.92
2022-12-11T05:09:01.554Z,35.50
2022-12-11T05:09:48.415Z,34.05
2022-12-11T05:10:35.244Z,30.35
2022-12-11T05:11:22.375Z,33.83
2022-12-11T05:12:09.415Z,32.25
2022-12-11T05:12:56.195Z,34.05
2022-12-11T05:13:43.701Z,35.03
2022-12-11T05:14:32.255Z,31.75
2022-12-11T05:15:19.093Z,33.35
2022-12-11T05:16:07.611Z,32.28
2022-12-11T05:16:54.447Z,35.70
2022-12-11T05:17:41.265Z,36.10
2022-12-11T05:18:28.027Z,34.72
2022-12-11T05:19:14.864Z,34.88
2022-12-11T05:20:01.879Z,34.05
2022-12-11T05:21:01.888Z,32.10
2022-12-11T05:21:48.674Z,33.67
2022-12-11T05:22:35.633Z,35.50
2022-12-11T05:23:22.706Z,33.45
2022-12-11T05:24:09.545Z,33.50
2022-12-11T05:24:56.324Z,36.90
2022-12-11T05:25:43.115Z,33.88
2022-12-11T05:26:29.972Z,35.35
2022-12-11T05:27:16.775Z,34.10
2022-12-11T05:28:03.774Z,35.53
2022-12-11T05:28:54.506Z,32.45
2022-12-11T05:29:42.071Z,34.25
2022-12-11T05:30:28.945Z,32.60
2022-12-11T05:31:18.764Z,35.47
2022-12-11T05:32:05.774Z,30.37
2022-12-11T05:32:52.595Z,33.95
2022-12-11T05:33:39.404Z,34.47
2022-12-11T05:34:26.287Z,35.10
2022-12-11T05:35:13.276Z,31.85
2022-12-11T05:36:00.466Z,30.27
2022-12-11T05:36:47.576Z,33.15
2022-12-11T05:37:34.836Z,31.17
2022-12-11T05:38:22.788Z,31.12
2022-12-11T05:39:11.824Z,29.40
2022-12-11T05:39:58.586Z,34.42
2022-12-11T05:40:45.565Z,32.05
2022-12-11T05:41:33.126Z,33.90
2022-12-11T05:42:24.014Z,33.15
2022-12-11T05:43:13.895Z,33.83
2022-12-11T05:44:00.835Z,29.85
2022-12-11T05:44:49.784Z,33.72
2022-12-11T05:45:37.106Z,33.60
2022-12-11T05:46:26.204Z,31.02
2022-12-11T05:47:13.025Z,32.53
2022-12-11T05:47:59.844Z,31.55
2022-12-11T05:48:48.336Z,33.50
2022-12-11T05:49:35.105Z,32.03
2022-12-11T05:50:21.894Z,34.38
2022-12-11T05:51:09.659Z,31.50
2022-12-11T05:51:56.435Z,29.27
2022-12-11T05:52:43.244Z,29.92
2022-12-11T05:53:30.354Z,30.45
2022-12-11T05:54:17.450Z,29.77
2022-12-11T05:55:04.406Z,31.30
2022-12-11T05:55:51.289Z,29.98
2022-12-11T05:56:38.145Z,29.95
2022-12-11T05:57:24.938Z,29.63
2022-12-11T05:58:11.794Z,31.73
2022-12-11T05:58:59.457Z,30.42
2022-12-11T05:59:46.373Z,31.75
2022-12-11T06:00:36.209Z,30.30
2022-12-11T06:01:26.425Z,22.90
2022-12-11T06:02:13.350Z,31.37
2022-12-11T06:03:00.298Z,28.15
2022-12-11T06:03:47.696Z,32.15
2022-12-11T06:04:34.525Z,27.00
2022-12-11T06:05:21.325Z,29.00
2022-12-11T06:06:08.434Z,31.08
2022-12-11T06:06:55.430Z,30.12
2022-12-11T06:07:42.225Z,28.23
2022-12-11T06:08:29.361Z,28.90
2022-12-11T06:09:17.387Z,30.15
2022-12-11T06:10:04.744Z,28.33
2022-12-11T06:10:51.660Z,29.67
2022-12-11T06:11:39.194Z,31.83
2022-12-11T06:12:25.935Z,29.85
2022-12-11T06:13:13.187Z,28.77
2022-12-11T06:14:02.184Z,26.40
2022-12-11T06:14:48.955Z,29.35
2022-12-11T06:15:35.716Z,32.53
2022-12-11T06:16:23.334Z,30.60
2022-12-11T06:17:10.284Z,26.37
2022-12-11T06:17:57.078Z,31.25
2022-12-11T06:18:45.282Z,29.75
2022-12-11T06:19:36.735Z,30.40
2022-12-11T06:20:24.034Z,29.67
2022-12-11T06:21:17.675Z,29.55
2022-12-11T06:22:05.048Z,27.55
2022-12-11T06:22:51.845Z,29.05
2022-12-11T06:23:38.615Z,30.77
2022-12-11T06:24:25.416Z,28.80
2022-12-11T06:25:12.352Z,27.73
2022-12-11T06:25:59.416Z,30.58
2022-12-11T06:26:46.265Z,30.92
2022-12-11T06:27:33.036Z,27.80
2022-12-11T06:28:19.824Z,31.33
2022-12-11T06:29:11.036Z,29.55
2022-12-11T06:29:59.684Z,28.62
2022-12-11T06:30:46.496Z,27.05
2022-12-11T06:31:33.371Z,28.38
2022-12-11T06:32:20.186Z,27.98
2022-12-11T06:33:07.455Z,28.60
2022-12-11T06:33:54.555Z,27.30
2022-12-11T06:34:41.336Z,30.52
2022-12-11T06:35:28.205Z,26.42
2022-12-11T06:36:17.844Z,29.08
2022-12-11T06:37:04.717Z,28.30
2022-12-11T06:37:51.521Z,30.73
2022-12-11T06:38:38.664Z,29.12
2022-12-11T06:39:25.524Z,27.62
2022-12-11T06:40:15.026Z,28.95
2022-12-11T06:41:04.963Z,27.45
2022-12-11T06:41:51.737Z,27.75
2022-12-11T06:42:39.146Z,27.15
2022-12-11T06:43:26.235Z,27.90
2022-12-11T06:44:13.054Z,26.70
2022-12-11T06:45:00.037Z,25.88
2022-12-11T06:45:46.803Z,29.02
2022-12-11T06:46:33.595Z,30.23
2022-12-11T06:47:20.415Z,26.77
2022-12-11T06:48:07.213Z,29.00
2022-12-11T06:48:53.993Z,29.17
2022-12-11T06:49:40.932Z,27.00
2022-12-11T06:50:27.948Z,27.10
2022-12-11T06:51:19.885Z,26.83
2022-12-11T06:52:06.776Z,31.70
2022-12-11T06:52:53.585Z,31.02
2022-12-11T06:53:40.781Z,29.37
2022-12-11T06:54:28.856Z,29.02
2022-12-11T06:55:15.771Z,28.50
2022-12-11T06:56:07.748Z,30.50
2022-12-11T06:56:54.619Z,31.17
2022-12-11T06:57:41.575Z,28.45
2022-12-11T06:58:28.415Z,27.00
2022-12-11T06:59:15.256Z,30.48
2022-12-11T07:00:02.066Z,28.27
2022-12-11T07:00:48.953Z,30.55
2022-12-11T07:01:35.821Z,27.08
2022-12-11T07:02:23.164Z,28.48
2022-12-11T07:03:10.238Z,30.30
2022-12-11T07:03:58.752Z,28.62
2022-12-11T07:04:48.289Z,28.12
2022-12-11T07:05:37.286Z,29.27
2022-12-11T07:06:25.434Z,29.30
2022-12-11T07:07:12.610Z,30.95
2022-12-11T07:07:59.440Z,28.50
2022-12-11T07:08:46.354Z,27.05
2022-12-11T07:09:33.336Z,28.62
2022-12-11T07:10:20.174Z,27.33
2022-12-11T07:11:10.035Z,29.37
2022-12-11T07:11:57.147Z,29.17
2022-12-11T07:12:43.944Z,29.27
2022-12-11T07:13:30.715Z,30.67
2022-12-11T07:14:18.025Z,28.35
2022-12-11T07:15:08.537Z,32.25
2022-12-11T07:15:55.604Z,29.83
2022-12-11T07:16:42.451Z,28.27
2022-12-11T07:17:29.988Z,28.30
2022-12-11T07:18:16.860Z,29.90
2022-12-11T07:19:03.747Z,29.65
2022-12-11T07:19:50.617Z,29.73
2022-12-11T07:20:37.455Z,30.33
2022-12-11T07:21:24.266Z,29.83
2022-12-11T07:22:11.086Z,31.27
2022-12-11T07:22:57.904Z,30.67
2022-12-11T07:23:44.744Z,30.20
2022-12-11T07:24:31.514Z,31.92
2022-12-11T07:25:18.314Z,31.58
2022-12-11T07:26:06.815Z,32.85
2022-12-11T07:26:53.604Z,33.33
2022-12-11T07:27:40.464Z,32.20
2022-12-11T07:28:27.289Z,34.35
2022-12-11T07:29:14.226Z,31.27
2022-12-11T07:30:01.025Z,31.62
2022-12-11T07:30:47.846Z,29.45
2022-12-11T07:31:34.870Z,27.98
2022-12-11T07:32:22.221Z,31.83
2022-12-11T07:33:09.106Z,28.45
2022-12-11T07:34:05.495Z,31.08
2022-12-11T07:34:52.346Z,33.63
2022-12-11T07:35:39.116Z,30.00
2022-12-11T07:36:26.596Z,37.85
2022-12-11T07:37:13.425Z,34.40
2022-12-11T07:38:00.319Z,29.02
2022-12-11T07:38:47.248Z,33.40
2022-12-11T07:39:34.055Z,29.35
2022-12-11T07:40:20.872Z,33.58
2022-12-11T07:41:11.117Z,32.50
2022-12-11T07:41:57.885Z,31.42
2022-12-11T07:42:46.406Z,32.90
2022-12-11T07:43:34.239Z,49.97
2022-12-11T07:44:21.284Z,76.22
2022-12-11T07:45:08.933Z,76.22
2022-12-11T07:45:55.943Z,42.97
2022-12-11T07:46:42.829Z,80.20
2022-12-11T07:47:29.605Z,80.78
2022-12-11T07:48:16.396Z,33.90
2022-12-11T07:49:05.364Z,37.40
2022-12-11T07:49:52.136Z,61.60
2022-12-11T07:50:40.018Z,33.53
2022-12-11T07:51:29.537Z,38.05
2022-12-11T07:52:17.534Z,41.13
2022-12-11T07:53:04.335Z,43.72
2022-12-11T07:53:51.335Z,34.65
2022-12-11T07:54:38.129Z,44.67
2022-12-11T07:55:24.889Z,38.78
2022-12-11T07:56:11.950Z,32.55
2022-12-11T07:56:58.734Z,32.28
2022-12-11T07:57:45.564Z,37.90
2022-12-11T07:58:32.348Z,38.38
2022-12-11T07:59:19.092Z,33.25
2022-12-11T08:00:06.651Z,34.70
2022-12-11T08:00:53.775Z,32.25
2022-12-11T08:01:42.365Z,30.30
2022-12-11T08:02:32.620Z,32.33
2022-12-11T08:03:25.216Z,35.13
2022-12-11T08:04:15.937Z,32.83
2022-12-11T08:05:02.878Z,29.23
2022-12-11T08:05:50.477Z,31.00
2022-12-11T08:06:39.489Z,32.85
2022-12-11T08:07:26.278Z,30.98
2022-12-11T08:08:13.128Z,29.10
2022-12-11T08:09:01.868Z,32.38
2022-12-11T08:09:48.724Z,31.10
2022-12-11T08:10:35.575Z,31.92
2022-12-11T08:11:22.494Z,34.85
2022-12-11T08:12:09.309Z,32.40
2022-12-11T08:12:56.074Z,32.92
2022-12-11T08:13:43.379Z,30.15
2022-12-11T08:14:30.176Z,25.62
2022-12-11T08:15:17.157Z,27.92
2022-12-11T08:16:07.794Z,28.38
2022-12-11T08:17:41.359Z,27.42
2022-12-11T08:18:28.129Z,24.73
2022-12-11T08:19:15.414Z,26.75
2022-12-11T08:20:02.238Z,26.87
2022-12-11T08:20:49.040Z,26.75
2022-12-11T08:21:35.807Z,28.20
2022-12-11T08:22:22.605Z,25.70
2022-12-11T08:23:09.385Z,27.50
2022-12-11T08:23:56.321Z,28.33
2022-12-11T08:24:43.165Z,27.60
2022-12-11T08:25:30.028Z,26.92
2022-12-11T08:26:23.055Z,23.45
2022-12-11T08:27:09.883Z,25.27
2022-12-11T08:27:56.715Z,24.40
2022-12-11T08:28:43.532Z,23.50
2022-12-11T08:29:30.296Z,22.77
2022-12-11T08:30:17.194Z,23.00
2022-12-11T08:31:06.064Z,22.73
2022-12-11T08:31:53.014Z,23.38
2022-12-11T08:32:39.808Z,20.45
2022-12-11T08:33:26.653Z,22.83
2022-12-11T08:34:14.316Z,21.25
2022-12-11T08:35:01.200Z,21.37
2022-12-11T08:35:48.145Z,26.83
2022-12-11T08:36:34.945Z,21.37
2022-12-11T08:37:21.722Z,27.90
2022-12-11T08:38:08.566Z,22.92
2022-12-11T08:38:56.424Z,24.35
2022-12-11T08:39:44.014Z,21.20
2022-12-11T08:40:30.954Z,20.70
2022-12-11T08:41:26.286Z,22.40
2022-12-11T08:42:13.163Z,21.77
2022-12-11T08:42:59.954Z,19.48
2022-12-11T08:43:47.296Z,19.25
2022-12-11T08:44:34.155Z,23.33
2022-12-11T08:45:20.934Z,21.75
2022-12-11T08:46:08.485Z,23.05
2022-12-11T08:46:55.324Z,22.00
2022-12-11T08:47:42.246Z,22.00
2022-12-11T08:48:29.035Z,23.45
2022-12-11T08:49:15.794Z,22.23
2022-12-11T08:50:03.096Z,24.77
2022-12-11T08:50:49.845Z,21.30
2022-12-11T08:51:36.869Z,23.92
2022-12-11T08:52:24.025Z,19.83
2022-12-11T08:53:10.842Z,23.08
2022-12-11T08:53:59.598Z,18.20
2022-12-11T08:54:46.374Z,20.45
2022-12-11T08:55:33.782Z,20.62
2022-12-11T08:56:21.710Z,20.67
2022-12-11T08:57:08.485Z,18.70
2022-12-11T08:57:55.584Z,21.25
2022-12-11T08:58:43.565Z,20.95
2022-12-11T08:59:30.383Z,19.25
2022-12-11T09:00:18.656Z,21.58
2022-12-11T09:01:13.127Z,18.70
2022-12-11T09:01:59.976Z,21.52
2022-12-11T09:02:46.811Z,21.00
2022-12-11T09:03:34.092Z,19.25
2022-12-11T09:04:20.905Z,21.70
2022-12-11T09:05:09.805Z,22.37
2022-12-11T09:05:56.985Z,21.45
2022-12-11T09:06:43.953Z,19.35
2022-12-11T09:07:30.724Z,18.90
2022-12-11T09:08:17.673Z,18.80
2022-12-11T09:09:04.806Z,17.83
2022-12-11T09:09:51.606Z,18.65
2022-12-11T09:10:38.424Z,19.20
2022-12-11T09:11:28.454Z,20.50
2022-12-11T09:12:15.296Z,15.48
2022-12-11T09:13:02.085Z,19.08
2022-12-11T09:13:48.944Z,18.42
2022-12-11T09:14:35.875Z,19.20
2022-12-11T09:15:22.697Z,18.83
2022-12-11T09:16:12.441Z,17.42
2022-12-11T09:16:59.485Z,19.42
2022-12-11T09:17:46.284Z,18.05
2022-12-11T09:18:33.116Z,16.33
2022-12-11T09:19:20.007Z,18.58
2022-12-11T09:20:07.513Z,16.27
2022-12-11T09:21:04.165Z,17.50
2022-12-11T09:21:50.957Z,17.48
2022-12-11T09:22:37.766Z,20.00
2022-12-11T09:23:24.546Z,17.87
2022-12-11T09:24:12.713Z,17.73
2022-12-11T09:24:59.883Z,20.10
2022-12-11T09:25:46.654Z,17.85
2022-12-11T09:26:33.495Z,18.27
2022-12-11T09:27:21.486Z,18.45
2022-12-11T09:28:08.294Z,16.90
2022-12-11T09:28:55.239Z,17.75
2022-12-11T09:29:42.293Z,17.23
2022-12-11T09:30:29.134Z,19.50
2022-12-11T09:31:18.833Z,20.33
2022-12-11T09:32:05.955Z,16.67
2022-12-11T09:32:53.294Z,18.20
2022-12-11T09:33:40.537Z,18.60
2022-12-11T09:34:29.414Z,18.08
2022-12-11T09:35:16.545Z,16.50
2022-12-11T09:36:04.247Z,18.80
2022-12-11T09:36:51.086Z,19.62
2022-12-11T09:37:37.855Z,19.33
2022-12-11T09:38:24.831Z,19.58
2022-12-11T09:39:12.565Z,19.37
2022-12-11T09:40:04.000Z,19.58
2022-12-11T09:40:54.525Z,20.08
2022-12-11T09:42:02.371Z,19.60
2022-12-11T09:43:21.694Z,18.48
2022-12-11T09:44:11.285Z,18.02
2022-12-11T09:45:02.584Z,19.48
2022-12-11T09:45:50.059Z,21.10
2022-12-11T09:46:38.039Z,18.75
2022-12-11T09:47:46.525Z,21.37
2022-12-11T09:48:34.257Z,18.25
2022-12-11T09:49:35.976Z,18.20
2022-12-11T09:50:26.987Z,18.90
2022-12-11T09:51:27.405Z,21.77
2022-12-11T09:52:17.974Z,16.85
2022-12-11T09:53:19.366Z,16.37
2022-12-11T09:54:06.497Z,19.45
2022-12-11T09:54:56.606Z,20.12
2022-12-11T09:55:52.683Z,18.50
2022-12-11T09:56:47.057Z,18.12
2022-12-11T09:57:54.411Z,18.73
2022-12-11T09:59:09.979Z,19.23
2022-12-11T10:00:04.501Z,18.05
2022-12-11T10:01:19.935Z,18.83
2022-12-11T10:02:28.425Z,18.50
2022-12-11T10:03:54.325Z,19.37
2022-12-11T10:05:12.026Z,16.33
2022-12-11T10:06:47.526Z,17.02
2022-12-11T10:08:17.681Z,17.12
2022-12-11T10:09:25.636Z,17.35
2022-12-11T10:10:15.561Z,17.40
2022-12-11T10:11:23.416Z,17.17
2022-12-11T10:12:13.006Z,19.17
2022-12-11T10:13:12.122Z,18.20
2022-12-11T10:14:36.508Z,19.48
2022-12-11T10:15:29.394Z,16.10
2022-12-11T10:16:39.265Z,17.60
2022-12-11T10:17:30.065Z,18.42
2022-12-11T10:18:21.424Z,16.58
2022-12-11T10:19:37.265Z,18.62
2022-12-11T10:20:29.424Z,16.33
2022-12-11T10:21:17.343Z,18.10
2022-12-11T10:22:04.254Z,18.40
2022-12-11T10:22:52.496Z,17.58
2022-12-11T10:23:45.156Z,17.77
2022-12-11T10:25:09.305Z,17.60
2022-12-11T10:25:54.267Z,17.45
2022-12-11T10:26:41.196Z,18.73
2022-12-11T10:27:33.098Z,20.05
2022-12-11T10:28:21.275Z,19.33
2022-12-11T10:29:14.040Z,18.45
2022-12-11T10:30:22.476Z,19.60
2022-12-11T10:31:25.675Z,20.15
2022-12-11T10:32:25.152Z,18.50
2022-12-11T10:33:11.883Z,17.40
2022-12-11T10:34:21.365Z,18.70
2022-12-11T10:35:10.687Z,19.35
2022-12-11T10:35:58.538Z,20.12
2022-12-11T10:36:45.592Z,18.10
2022-12-11T10:37:32.447Z,19.67
2022-12-11T10:38:31.707Z,17.67
2022-12-11T10:39:20.798Z,18.45